Time;durP1;ratioP1;P1;durP2;ratioP2;P2;SDS_P1;SDS_P2;PMS_P1;PMS_P2;Temp;Humidity;BMP_temperature;BMP_pressure;BME280_temperature;BME280_humidity;BME280_pressure;Samples;Min_cycle;Max_cycle;Signal;HPM_P1;HPM_P2
2022/06/29 00:01:17;;;;;;;4.60;4.30;;;27.20;52.60;;;;;;5026275;28;20190;-46
2022/06/29 00:03:44;;;;;;;4.40;4.00;;;27.10;52.70;;;;;;5030369;28;22296;-45
2022/06/29 00:06:10;;;;;;;5.87;4.60;;;27.10;52.70;;;;;;5025648;28;20204;-45
2022/06/29 00:08:36;;;;;;;4.50;4.10;;;27.10;52.60;;;;;;5015905;28;20452;-45
2022/06/29 00:11:02;;;;;;;6.57;4.77;;;27.10;52.60;;;;;;5027163;28;20201;-45
2022/06/29 00:13:27;;;;;;;5.23;4.73;;;27.00;52.80;;;;;;5023450;28;20193;-45
2022/06/29 00:15:53;;;;;;;4.00;3.70;;;27.00;52.90;;;;;;5029425;28;20302;-45
2022/06/29 00:18:18;;;;;;;4.50;4.20;;;26.90;52.80;;;;;;5030392;28;20193;-45
2022/06/29 00:20:45;;;;;;;4.50;4.20;;;26.90;52.70;;;;;;5020019;28;20203;-45
2022/06/29 00:23:11;;;;;;;4.53;4.00;;;26.90;52.80;;;;;;5020344;28;20204;-46
2022/06/29 00:25:36;;;;;;;6.00;4.70;;;26.80;52.60;;;;;;5020855;28;20488;-46
2022/06/29 00:28:02;;;;;;;5.03;4.73;;;26.80;52.70;;;;;;5032789;28;20197;-45
2022/06/29 00:30:28;;;;;;;5.03;4.70;;;26.70;52.90;;;;;;5026422;28;20189;-47
2022/06/29 00:32:53;;;;;;;5.30;4.90;;;26.60;53.50;;;;;;5030660;28;20786;-47
2022/06/29 00:35:19;;;;;;;4.60;4.30;;;26.50;53.40;;;;;;5024167;28;20193;-46
2022/06/29 00:37:45;;;;;;;4.63;4.23;;;26.50;54.30;;;;;;5025782;28;20568;-45
2022/06/29 00:40:11;;;;;;;5.07;4.67;;;26.50;53.70;;;;;;5023741;28;20209;-45
2022/06/29 00:42:37;;;;;;;4.17;3.87;;;26.50;53.70;;;;;;5027105;28;20667;-45
2022/06/29 00:45:03;;;;;;;4.37;4.07;;;26.60;53.60;;;;;;5020348;28;20594;-45
2022/06/29 00:47:29;;;;;;;4.10;3.80;;;26.60;53.40;;;;;;5014620;28;20196;-45
2022/06/29 00:49:55;;;;;;;4.40;4.00;;;26.70;53.30;;;;;;5014786;28;20451;-45
2022/06/29 00:52:24;;;;;;;4.53;4.23;;;26.70;53.10;;;;;;5021560;28;20304;-46
2022/06/29 00:54:55;;;;;;;4.90;4.57;;;26.70;53.10;;;;;;5021352;28;20581;-45
2022/06/29 00:57:26;;;;;;;5.87;4.20;;;26.80;53.10;;;;;;5023192;28;20459;-45
2022/06/29 00:59:54;;;;;;;4.40;4.13;;;26.70;53.10;;;;;;5039356;28;20989;-45
2022/06/29 01:02:24;;;;;;;4.40;4.10;;;26.70;53.20;;;;;;5022041;28;20440;-45
2022/06/29 01:04:50;;;;;;;5.47;4.40;;;26.70;53.20;;;;;;5031242;28;20491;-45
2022/06/29 01:07:19;;;;;;;4.60;4.20;;;26.70;53.10;;;;;;5033426;28;20496;-45
2022/06/29 01:09:45;;;;;;;4.70;4.20;;;26.70;53.10;;;;;;5025945;28;20448;-46
2022/06/29 01:12:11;;;;;;;4.20;3.87;;;26.60;53.10;;;;;;5029703;28;20501;-45
2022/06/29 01:14:39;;;;;;;3.87;3.57;;;26.60;53.30;;;;;;5033026;28;20493;-45
2022/06/29 01:17:05;;;;;;;5.13;4.83;;;26.60;53.40;;;;;;5028411;28;20506;-45
2022/06/29 01:19:30;;;;;;;4.50;4.20;;;26.60;53.30;;;;;;5027525;28;20931;-46
2022/06/29 01:22:04;;;;;;;4.43;4.13;;;26.60;53.10;;;;;;5024243;28;20197;-49
2022/06/29 01:24:30;;;;;;;4.47;4.17;;;26.60;53.10;;;;;;5027052;28;20279;-49
2022/06/29 01:26:56;;;;;;;4.07;3.80;;;26.60;53.20;;;;;;5024551;28;20528;-46
2022/06/29 01:29:21;;;;;;;4.50;4.20;;;26.50;53.20;;;;;;5033509;28;20204;-45
2022/06/29 01:31:52;;;;;;;4.60;4.30;;;26.50;53.20;;;;;;5037083;28;20201;-45
2022/06/29 01:34:18;;;;;;;4.27;3.97;;;26.50;53.30;;;;;;5033545;28;20224;-46
2022/06/29 01:36:43;;;;;;;4.60;4.20;;;26.50;53.40;;;;;;5039115;28;20476;-46
2022/06/29 01:39:09;;;;;;;4.73;4.33;;;26.50;53.40;;;;;;5035799;28;20284;-46
2022/06/29 01:41:35;;;;;;;4.30;4.00;;;26.50;53.20;;;;;;5028078;28;20198;-45
2022/06/29 01:44:00;;;;;;;4.20;3.80;;;26.40;53.40;;;;;;5033125;28;20193;-48
2022/06/29 01:46:26;;;;;;;5.07;4.67;;;26.30;53.90;;;;;;5035199;28;20659;-46
2022/06/29 01:48:52;;;;;;;4.87;4.57;;;26.30;53.90;;;;;;5036036;28;20546;-47
2022/06/29 01:51:17;;;;;;;5.27;4.97;;;26.30;53.90;;;;;;5029005;28;20235;-49
2022/06/29 01:53:43;;;;;;;5.03;3.80;;;26.30;53.80;;;;;;5020538;28;20193;-45
2022/06/29 01:56:09;;;;;;;5.67;5.17;;;26.40;53.80;;;;;;5017944;28;20638;-46
2022/06/29 01:58:34;;;;;;;5.00;4.60;;;26.40;53.90;;;;;;5027149;28;20192;-45
2022/06/29 02:01:00;;;;;;;5.70;5.20;;;26.40;53.80;;;;;;5028718;28;20562;-48
2022/06/29 02:03:25;;;;;;;5.27;4.87;;;26.40;53.80;;;;;;5033437;28;20274;-46
2022/06/29 02:05:51;;;;;;;6.17;5.67;;;26.40;53.80;;;;;;5024359;28;20869;-49
2022/06/29 02:08:17;;;;;;;5.20;4.80;;;26.30;53.90;;;;;;5024004;28;20204;-46
2022/06/29 02:10:42;;;;;;;5.47;4.80;;;26.20;54.40;;;;;;5028045;28;20185;-47
2022/06/29 02:13:08;;;;;;;4.77;4.47;;;26.10;54.30;;;;;;5026883;28;20197;-50
2022/06/29 02:15:34;;;;;;;5.00;4.70;;;26.20;54.30;;;;;;5035447;28;20192;-46
2022/06/29 02:18:01;;;;;;;6.27;5.03;;;26.20;54.10;;;;;;5044196;28;20287;-46
2022/06/29 02:20:26;;;;;;;10.83;5.47;;;26.30;54.10;;;;;;5029794;28;20436;-48
2022/06/29 02:22:52;;;;;;;5.03;4.63;;;26.30;53.80;;;;;;5019219;28;20805;-45
2022/06/29 02:25:18;;;;;;;5.03;4.60;;;26.30;53.80;;;;;;5032924;28;20664;-47
2022/06/29 02:27:47;;;;;;;4.70;4.40;;;26.30;53.80;;;;;;5032228;28;20197;-47
2022/06/29 02:30:14;;;;;;;5.07;4.67;;;26.30;54.00;;;;;;5030139;28;20197;-46
2022/06/29 02:35:25;;;;;;;5.40;5.00;;;26.20;53.70;;;;;;5027899;28;20463;-47
2022/06/29 02:37:50;;;;;;;5.30;5.00;;;26.20;53.90;;;;;;5031981;28;20440;-48
2022/06/29 02:40:16;;;;;;;5.10;4.70;;;26.20;53.80;;;;;;5036351;28;20198;-45
2022/06/29 02:42:42;;;;;;;4.70;4.40;;;26.10;53.80;;;;;;5032233;28;20220;-45
2022/06/29 02:45:08;;;;;;;5.53;4.60;;;26.10;53.90;;;;;;5029220;28;20259;-49
2022/06/29 02:47:33;;;;;;;4.70;4.40;;;26.10;54.10;;;;;;5042836;28;20240;-46
2022/06/29 02:49:59;;;;;;;5.37;4.87;;;26.00;54.20;;;;;;5030794;28;20200;-47
2022/06/29 02:52:24;;;;;;;5.20;4.80;;;26.10;54.30;;;;;;5040088;28;20236;-46
2022/06/29 02:54:50;;;;;;;4.70;4.40;;;26.10;54.10;;;;;;5035405;28;20603;-47
2022/06/29 02:57:16;;;;;;;4.80;4.40;;;26.10;54.00;;;;;;5035185;28;20216;-47
2022/06/29 02:59:41;;;;;;;5.50;4.70;;;26.10;53.80;;;;;;5026495;28;20219;-45
2022/06/29 03:02:07;;;;;;;5.13;4.60;;;26.10;53.90;;;;;;5033539;28;20194;-46
2022/06/29 03:04:35;;;;;;;5.67;5.20;;;26.10;53.80;;;;;;5035193;28;20221;-48
2022/06/29 03:07:02;;;;;;;6.07;4.97;;;26.10;53.70;;;;;;5041422;28;20310;-45
2022/06/29 03:09:27;;;;;;;8.03;5.03;;;26.10;53.60;;;;;;5029057;28;20480;-46
2022/06/29 03:11:53;;;;;;;5.80;5.40;;;26.00;53.70;;;;;;5018729;28;21227;-46
2022/06/29 03:14:19;;;;;;;5.03;4.63;;;26.00;53.60;;;;;;5035259;28;20213;-46
2022/06/29 03:16:44;;;;;;;4.97;4.57;;;25.90;53.50;;;;;;5027295;28;20201;-45
2022/06/29 03:19:10;;;;;;;5.37;4.97;;;25.80;54.00;;;;;;5037471;28;20200;-45
2022/06/29 03:21:36;;;;;;;5.10;4.70;;;25.80;54.00;;;;;;5029910;28;20235;-45
2022/06/29 03:24:03;;;;;;;5.67;5.27;;;25.70;54.20;;;;;;5025581;28;20224;-48
2022/06/29 03:26:30;;;;;;;6.37;4.97;;;25.70;54.40;;;;;;5032008;28;20197;-46
2022/06/29 03:28:55;;;;;;;5.77;5.27;;;25.60;54.60;;;;;;5029425;28;20436;-46
2022/06/29 03:31:21;;;;;;;5.07;4.77;;;25.60;54.90;;;;;;5021489;28;20436;-48
2022/06/29 03:33:47;;;;;;;6.07;5.20;;;25.50;54.40;;;;;;5024517;28;20196;-46
2022/06/29 03:36:13;;;;;;;5.93;5.43;;;25.40;54.40;;;;;;5020533;28;20696;-48
2022/06/29 03:38:38;;;;;;;6.10;5.70;;;25.40;54.60;;;;;;5028126;28;20193;-47
2022/06/29 03:41:04;;;;;;;6.50;5.90;;;25.20;55.30;;;;;;5032411;28;20446;-46
2022/06/29 03:43:30;;;;;;;7.03;5.70;;;25.20;55.30;;;;;;5025661;28;20197;-46
2022/06/29 03:45:56;;;;;;;6.50;5.90;;;25.20;55.60;;;;;;5022058;28;20585;-48
2022/06/29 03:48:21;;;;;;;5.60;5.10;;;25.20;55.70;;;;;;5028227;28;20529;-45
2022/06/29 03:50:47;;;;;;;8.93;5.60;;;25.10;55.50;;;;;;5016812;28;20260;-46
2022/06/29 03:53:13;;;;;;;5.90;5.50;;;25.10;55.70;;;;;;5018655;28;20197;-47
2022/06/29 03:55:38;;;;;;;6.60;5.87;;;25.00;56.00;;;;;;5020494;28;20201;-47
2022/06/29 03:58:04;;;;;;;6.83;5.90;;;25.00;56.00;;;;;;5023250;28;20186;-47
2022/06/29 04:00:30;;;;;;;6.30;5.80;;;24.90;56.20;;;;;;5029519;28;20193;-46
2022/06/29 04:02:55;;;;;;;6.97;6.47;;;24.90;56.60;;;;;;5028131;28;20193;-46
2022/06/29 04:05:21;;;;;;;5.80;5.30;;;24.80;56.40;;;;;;5027274;28;20680;-46
2022/06/29 04:07:46;;;;;;;6.07;5.47;;;24.80;56.80;;;;;;5024073;28;20239;-47
2022/06/29 04:10:12;;;;;;;6.10;5.60;;;24.60;57.70;;;;;;5033390;28;20644;-46
2022/06/29 04:12:38;;;;;;;6.57;5.97;;;24.70;57.50;;;;;;5026638;28;20212;-44
2022/06/29 04:15:05;;;;;;;7.10;6.43;;;24.70;57.30;;;;;;5022497;28;20225;-46
2022/06/29 04:17:31;;;;;;;5.87;5.40;;;24.80;57.20;;;;;;5019504;28;20723;-46
2022/06/29 04:19:57;;;;;;;7.60;5.50;;;24.80;57.10;;;;;;5034658;28;20439;-45
2022/06/29 04:22:22;;;;;;;5.00;4.70;;;24.80;57.30;;;;;;5031480;28;20227;-47
2022/06/29 04:24:49;;;;;;;6.37;5.30;;;24.80;57.20;;;;;;5031542;28;20232;-46
2022/06/29 04:27:16;;;;;;;6.70;6.10;;;24.90;57.00;;;;;;5025647;28;20193;-45
2022/06/29 04:29:42;;;;;;;5.77;4.83;;;25.00;56.90;;;;;;5034065;28;20477;-45
2022/06/29 04:32:08;;;;;;;5.37;4.97;;;25.00;56.90;;;;;;5026886;28;20476;-46
2022/06/29 04:34:34;;;;;;;5.27;4.90;;;25.10;56.80;;;;;;5034510;28;20208;-45
2022/06/29 04:36:59;;;;;;;5.50;5.00;;;25.20;56.60;;;;;;5028162;28;20440;-46
2022/06/29 04:39:25;;;;;;;9.10;5.10;;;25.20;56.30;;;;;;5028384;28;20280;-45
2022/06/29 04:41:52;;;;;;;7.00;5.90;;;25.30;56.40;;;;;;5024740;28;20189;-45
2022/06/29 04:44:18;;;;;;;5.80;5.33;;;25.30;56.20;;;;;;5024493;28;20658;-47
2022/06/29 04:46:44;;;;;;;5.90;5.40;;;25.40;56.80;;;;;;5030690;28;20543;-45
2022/06/29 04:49:10;;;;;;;6.37;5.77;;;25.40;56.20;;;;;;5032916;28;20667;-46
2022/06/29 04:51:35;;;;;;;5.13;4.83;;;25.40;56.10;;;;;;5025240;28;20674;-46
2022/06/29 04:54:02;;;;;;;5.67;5.13;;;25.40;56.10;;;;;;5026658;28;20193;-46
2022/06/29 04:56:32;;;;;;;5.30;4.90;;;25.50;56.10;;;;;;5027145;28;20626;-46
2022/06/29 04:58:59;;;;;;;6.50;5.00;;;25.50;56.10;;;;;;5021603;28;20440;-45
2022/06/29 05:01:27;;;;;;;5.40;4.90;;;25.60;56.00;;;;;;5025564;28;20501;-45
2022/06/29 05:03:54;;;;;;;11.00;9.97;;;25.60;56.00;;;;;;5027255;28;20541;-46
2022/06/29 05:06:21;;;;;;;8.83;7.20;;;25.60;56.00;;;;;;5023263;28;20452;-46
2022/06/29 05:08:48;;;;;;;6.40;5.80;;;25.20;56.60;;;;;;5023057;28;20486;-45
2022/06/29 05:11:14;;;;;;;7.77;7.17;;;24.70;58.10;;;;;;5026072;28;20440;-46
2022/06/29 05:13:44;;;;;;;7.63;5.60;;;24.60;58.60;;;;;;5027197;28;20447;-45
2022/06/29 05:16:09;;;;;;;7.23;6.60;;;24.60;58.60;;;;;;5023011;28;20443;-46
2022/06/29 05:18:37;;;;;;;5.80;5.40;;;24.30;59.10;;;;;;5028141;28;20440;-45
2022/06/29 05:21:03;;;;;;;6.00;5.50;;;24.30;59.40;;;;;;5022265;28;20732;-46
2022/06/29 05:23:30;;;;;;;10.40;5.83;;;24.60;59.10;;;;;;5024562;28;20787;-47
2022/06/29 05:25:57;;;;;;;6.20;5.70;;;24.80;58.60;;;;;;5022323;28;20984;-46
2022/06/29 05:28:23;;;;;;;6.03;5.60;;;25.00;58.40;;;;;;5024992;28;20437;-46
2022/06/29 05:30:50;;;;;;;5.97;5.47;;;25.00;58.20;;;;;;5028014;28;20452;-45
2022/06/29 05:33:16;;;;;;;6.37;4.93;;;24.80;58.50;;;;;;5043802;28;20439;-45
2022/06/29 05:35:41;;;;;;;5.63;5.20;;;25.00;58.40;;;;;;5031637;28;20895;-49
2022/06/29 05:38:07;;;;;;;7.13;6.43;;;25.10;58.10;;;;;;5031140;28;20435;-46
2022/06/29 05:40:33;;;;;;;6.90;6.40;;;25.10;58.20;;;;;;5032238;28;20206;-46
2022/06/29 05:42:58;;;;;;;6.43;5.17;;;25.00;58.00;;;;;;5034833;28;20270;-46
2022/06/29 05:45:25;;;;;;;8.20;5.70;;;25.20;57.90;;;;;;5032898;28;20316;-49
2022/06/29 05:47:53;;;;;;;6.40;5.93;;;25.30;57.80;;;;;;5033688;28;20583;-47
2022/06/29 05:50:19;;;;;;;6.73;5.93;;;25.30;57.60;;;;;;5031404;28;20477;-49
2022/06/29 05:52:44;;;;;;;6.87;6.20;;;25.40;57.40;;;;;;5032276;28;20519;-46
2022/06/29 05:55:10;;;;;;;7.20;6.50;;;25.40;57.40;;;;;;5032917;28;20420;-47
2022/06/29 05:57:35;;;;;;;5.07;4.77;;;25.50;57.10;;;;;;5035884;28;20274;-49
2022/06/29 06:00:03;;;;;;;6.57;6.07;;;25.60;56.90;;;;;;5036014;28;20660;-49
2022/06/29 06:02:29;;;;;;;5.83;5.37;;;25.60;56.70;;;;;;5039414;28;20627;-48
2022/06/29 06:04:54;;;;;;;6.73;5.07;;;25.70;56.60;;;;;;5035196;28;20522;-48
2022/06/29 06:07:20;;;;;;;5.07;4.77;;;25.80;56.50;;;;;;5029723;28;20193;-49
2022/06/29 06:09:45;;;;;;;5.70;5.30;;;25.90;56.30;;;;;;5033698;28;20197;-46
2022/06/29 06:12:11;;;;;;;5.63;5.13;;;25.90;56.30;;;;;;5046613;28;20235;-48
2022/06/29 06:14:37;;;;;;;5.37;4.97;;;25.90;56.40;;;;;;5041613;28;20197;-46
2022/06/29 06:17:03;;;;;;;5.70;5.30;;;25.90;56.40;;;;;;5031897;28;20645;-47
2022/06/29 06:19:29;;;;;;;6.20;5.70;;;26.00;56.30;;;;;;5031979;28;20243;-46
2022/06/29 06:21:54;;;;;;;5.30;4.90;;;25.90;56.50;;;;;;5028847;28;20197;-50
2022/06/29 06:24:20;;;;;;;5.30;5.00;;;25.80;56.70;;;;;;5031513;28;20217;-46
2022/06/29 06:26:46;;;;;;;6.27;5.40;;;25.50;57.30;;;;;;5029860;28;20272;-49
2022/06/29 06:29:12;;;;;;;5.97;5.50;;;25.50;57.60;;;;;;5029143;28;20444;-47
2022/06/29 06:31:37;;;;;;;6.53;5.47;;;25.60;57.50;;;;;;5030512;28;20197;-46
2022/06/29 06:34:03;;;;;;;6.80;5.37;;;25.70;57.80;;;;;;5028627;28;20275;-50
2022/06/29 06:36:29;;;;;;;6.00;5.50;;;25.80;57.20;;;;;;5031205;28;20567;-50
2022/06/29 06:38:54;;;;;;;6.30;5.80;;;25.80;57.10;;;;;;5033234;28;20201;-50
2022/06/29 06:41:25;;;;;;;6.70;6.10;;;25.90;56.80;;;;;;5031539;28;20614;-50
2022/06/29 06:43:56;;;;;;;6.60;5.80;;;25.90;57.10;;;;;;5031420;28;20197;-48
2022/06/29 06:46:22;;;;;;;5.90;5.50;;;25.70;57.20;;;;;;5030648;28;21050;-49
2022/06/29 06:48:52;;;;;;;5.20;4.90;;;25.80;57.40;;;;;;5031828;28;20486;-46
2022/06/29 06:51:18;;;;;;;5.80;5.10;;;25.80;57.30;;;;;;5037450;28;20484;-46
2022/06/29 06:53:45;;;;;;;5.50;5.10;;;25.90;57.30;;;;;;5030327;28;20950;-48
2022/06/29 06:56:11;;;;;;;6.53;5.93;;;26.00;57.00;;;;;;5040327;28;20822;-47
2022/06/29 06:58:37;;;;;;;6.03;5.63;;;26.10;56.90;;;;;;5030166;28;20448;-48
2022/06/29 07:01:04;;;;;;;6.53;6.03;;;26.10;56.90;;;;;;5032588;28;20197;-46
2022/06/29 07:03:31;;;;;;;5.90;5.40;;;26.00;56.70;;;;;;5028291;28;20197;-48
2022/06/29 07:06:00;;;;;;;8.00;6.00;;;25.90;57.00;;;;;;5029963;28;20522;-47
2022/06/29 07:08:27;;;;;;;6.77;6.27;;;25.90;57.20;;;;;;5033334;28;20444;-44
2022/06/29 07:10:53;;;;;;;6.70;5.97;;;25.70;57.60;;;;;;5031308;28;20424;-45
2022/06/29 07:13:18;;;;;;;7.37;6.77;;;25.50;58.20;;;;;;5037439;28;20494;-49
2022/06/29 07:15:44;;;;;;;5.80;5.27;;;25.40;58.50;;;;;;5028668;28;20219;-46
2022/06/29 07:18:10;;;;;;;7.77;7.00;;;25.60;58.50;;;;;;5027241;28;20216;-49
2022/06/29 07:20:35;;;;;;;6.40;5.60;;;25.70;57.70;;;;;;5027594;28;20197;-45
2022/06/29 07:23:01;;;;;;;5.97;5.47;;;25.80;57.50;;;;;;5028933;28;20190;-45
2022/06/29 07:25:26;;;;;;;6.00;5.50;;;25.60;57.90;;;;;;5030991;28;20274;-45
2022/06/29 07:27:52;;;;;;;6.40;5.80;;;25.80;57.80;;;;;;5033272;28;20228;-47
2022/06/29 07:30:18;;;;;;;9.00;5.60;;;25.90;57.30;;;;;;5033149;28;20200;-49
2022/06/29 07:32:43;;;;;;;5.90;5.43;;;26.10;57.00;;;;;;5030448;28;20193;-48
2022/06/29 07:35:09;;;;;;;8.33;6.03;;;26.00;56.80;;;;;;5029030;28;20205;-45
2022/06/29 07:37:35;;;;;;;7.30;6.60;;;26.00;57.00;;;;;;5026386;28;20199;-45
2022/06/29 07:40:00;;;;;;;6.27;5.77;;;26.10;56.80;;;;;;5028143;28;20207;-44
2022/06/29 07:42:26;;;;;;;6.67;6.07;;;26.30;56.70;;;;;;5029430;28;20189;-46
2022/06/29 07:44:51;;;;;;;6.67;6.17;;;26.10;57.30;;;;;;5032048;28;20232;-45
2022/06/29 07:47:17;;;;;;;5.93;5.53;;;26.10;57.40;;;;;;5028231;28;20568;-45
2022/06/29 07:49:43;;;;;;;6.67;6.17;;;26.30;57.30;;;;;;5029312;28;20200;-49
2022/06/29 07:52:08;;;;;;;10.60;6.33;;;26.40;56.60;;;;;;5028400;28;20232;-46
2022/06/29 07:54:34;;;;;;;5.97;5.57;;;26.50;56.30;;;;;;5025195;28;20280;-45
2022/06/29 07:56:59;;;;;;;5.50;5.00;;;26.80;56.60;;;;;;5028519;28;20425;-47
2022/06/29 07:59:25;;;;;;;8.27;5.83;;;27.10;55.60;;;;;;5036307;28;20649;-46
2022/06/29 08:01:51;;;;;;;6.27;5.70;;;27.30;55.80;;;;;;5030012;28;20194;-49
2022/06/29 08:04:16;;;;;;;5.43;5.03;;;27.40;54.60;;;;;;5030796;28;20201;-45
2022/06/29 08:06:42;;;;;;;5.70;5.37;;;27.70;54.60;;;;;;5028658;28;20563;-46
2022/06/29 08:09:07;;;;;;;9.03;5.87;;;27.90;54.20;;;;;;5030949;28;20193;-45
2022/06/29 08:11:33;;;;;;;6.17;5.57;;;28.00;53.10;;;;;;5035973;28;20200;-45
2022/06/29 08:13:59;;;;;;;6.30;5.90;;;27.90;52.50;;;;;;5030193;28;20246;-47
2022/06/29 08:16:24;;;;;;;6.33;5.80;;;28.10;52.40;;;;;;5028573;28;20258;-45
2022/06/29 08:18:50;;;;;;;5.50;5.20;;;28.20;52.10;;;;;;5031826;28;20193;-45
2022/06/29 08:21:15;;;;;;;5.70;5.30;;;28.20;52.30;;;;;;5028630;28;20194;-45
2022/06/29 08:23:41;;;;;;;6.70;6.20;;;28.10;52.50;;;;;;5036118;28;20189;-46
2022/06/29 08:26:07;;;;;;;6.10;5.60;;;28.20;52.50;;;;;;5028821;28;20224;-47
2022/06/29 08:28:33;;;;;;;6.53;5.93;;;28.20;51.50;;;;;;5025702;28;20189;-44
2022/06/29 08:30:58;;;;;;;6.53;5.93;;;28.30;50.90;;;;;;5032597;28;20261;-45
2022/06/29 08:33:24;;;;;;;5.40;4.93;;;28.60;51.00;;;;;;5034614;28;20193;-48
2022/06/29 08:35:50;;;;;;;5.50;4.90;;;28.80;50.40;;;;;;5030114;28;20645;-48
2022/06/29 08:38:16;;;;;;;6.17;5.57;;;28.80;50.40;;;;;;5033708;28;20640;-46
2022/06/29 08:40:45;;;;;;;5.47;5.10;;;29.00;49.80;;;;;;5030484;28;20433;-47
2022/06/29 08:43:12;;;;;;;5.73;5.20;;;29.10;49.40;;;;;;5028131;28;20440;-45
2022/06/29 08:45:48;;;;;;;5.70;5.20;;;29.30;49.80;;;;;;5031858;28;20487;-46
2022/06/29 08:48:15;;;;;;;4.80;4.50;;;29.50;49.40;;;;;;5029817;28;20516;-45
2022/06/29 08:50:43;;;;;;;5.20;4.80;;;29.60;49.20;;;;;;5027925;28;20616;-45
2022/06/29 08:53:13;;;;;;;4.80;4.40;;;29.70;48.80;;;;;;5026472;28;20435;-45
2022/06/29 08:55:46;;;;;;;5.57;5.17;;;29.80;48.60;;;;;;5030376;28;20427;-50
2022/06/29 08:58:33;;;;;;;5.20;4.87;;;29.70;48.00;;;;;;5023729;28;20960;-49
2022/06/29 09:00:58;;;;;;;5.13;4.83;;;29.60;48.20;;;;;;5026855;28;20431;-46
2022/06/29 09:03:24;;;;;;;4.83;4.40;;;29.80;48.30;;;;;;5023056;28;20436;-46
2022/06/29 09:05:56;;;;;;;5.80;5.30;;;30.00;48.30;;;;;;5024628;28;20221;-46
2022/06/29 09:08:23;;;;;;;4.53;4.23;;;30.20;47.30;;;;;;5026650;28;20221;-46
2022/06/29 09:10:49;;;;;;;4.80;4.50;;;30.30;46.90;;;;;;5014328;28;20457;-46
2022/06/29 09:13:23;;;;;;;4.50;4.20;;;30.40;47.30;;;;;;5024239;28;20446;-45
2022/06/29 09:15:59;;;;;;;4.33;3.93;;;30.60;46.80;;;;;;5034549;28;20456;-45
2022/06/29 09:18:32;;;;;;;4.77;4.27;;;30.70;46.30;;;;;;5036759;28;20443;-46
2022/06/29 09:21:05;;;;;;;4.20;3.63;;;30.80;46.10;;;;;;5031281;28;20580;-46
2022/06/29 09:23:32;;;;;;;4.37;3.97;;;30.90;45.30;;;;;;5029740;28;20488;-44
2022/06/29 09:25:58;;;;;;;4.30;4.00;;;30.80;44.80;;;;;;5033581;28;20491;-45
2022/06/29 09:28:26;;;;;;;4.20;3.80;;;30.80;44.70;;;;;;5033334;28;20447;-48
2022/06/29 09:30:54;;;;;;;4.47;4.13;;;30.90;45.00;;;;;;5028663;28;20526;-45
2022/06/29 09:33:21;;;;;;;5.13;4.60;;;30.90;45.30;;;;;;5029160;28;20431;-45
2022/06/29 09:36:07;;;;;;;5.03;4.63;;;30.70;45.80;;;;;;5031819;28;20523;-44
2022/06/29 09:38:34;;;;;;;4.90;4.10;;;30.60;46.20;;;;;;5029413;28;20979;-45
2022/06/29 09:40:59;;;;;;;5.43;5.00;;;30.80;46.10;;;;;;5033733;28;20444;-47
2022/06/29 09:43:26;;;;;;;4.77;4.30;;;31.00;45.80;;;;;;5035201;28;20570;-45
2022/06/29 09:45:55;;;;;;;4.63;4.33;;;31.00;44.80;;;;;;5035976;28;20676;-45
2022/06/29 09:48:26;;;;;;;5.37;4.90;;;31.10;44.90;;;;;;5035134;28;20443;-46
2022/06/29 09:50:53;;;;;;;4.10;3.80;;;31.20;45.00;;;;;;5037988;28;20479;-44
2022/06/29 09:53:24;;;;;;;4.63;4.33;;;31.10;44.40;;;;;;5027584;28;20455;-44
2022/06/29 09:55:54;;;;;;;4.07;3.83;;;31.20;45.10;;;;;;5041131;28;20439;-44
2022/06/29 09:58:29;;;;;;;5.20;4.03;;;31.40;44.80;;;;;;5030366;28;20448;-44
2022/06/29 10:03:40;;;;;;;6.23;5.63;;;31.60;44.50;;;;;;5023223;28;20497;-44
2022/06/29 10:06:08;;;;;;;4.80;4.40;;;31.50;44.20;;;;;;5033546;28;21090;-45
2022/06/29 10:08:35;;;;;;;7.73;4.43;;;31.60;44.00;;;;;;5034092;28;20452;-45
2022/06/29 10:14:01;;;;;;;4.50;4.20;;;31.70;43.90;;;;;;5036662;28;20454;-46
2022/06/29 10:16:41;;;;;;;4.90;4.50;;;31.60;43.60;;;;;;5032275;28;20443;-44
2022/06/29 10:19:34;;;;;;;6.20;4.10;;;31.50;44.20;;;;;;5030299;28;20531;-45
2022/06/29 10:22:01;;;;;;;4.73;4.33;;;31.60;44.00;;;;;;5019303;28;20476;-44
2022/06/29 10:24:28;;;;;;;6.20;5.37;;;31.80;43.40;;;;;;5038472;28;20445;-45
2022/06/29 10:26:54;;;;;;;5.30;4.80;;;32.00;44.30;;;;;;5030858;28;20479;-45
2022/06/29 10:29:19;;;;;;;8.50;6.20;;;32.20;44.10;;;;;;5030129;28;20498;-45
2022/06/29 10:31:54;;;;;;;6.10;5.60;;;32.40;43.50;;;;;;5039594;28;20211;-44
2022/06/29 10:34:28;;;;;;;5.53;4.57;;;32.60;43.30;;;;;;5030164;28;20197;-45
2022/06/29 10:37:03;;;;;;;5.30;4.90;;;32.80;42.80;;;;;;5038725;28;20448;-45
2022/06/29 10:39:43;;;;;;;5.00;4.50;;;32.90;42.50;;;;;;5043436;28;21131;-44
2022/06/29 10:45:15;;;;;;;4.73;4.43;;;33.40;41.80;;;;;;5031106;28;20545;-46
2022/06/29 10:47:47;;;;;;;9.27;4.60;;;33.50;40.90;;;;;;5033572;28;20458;-45
2022/06/29 10:50:20;;;;;;;5.63;5.13;;;33.70;41.60;;;;;;5033492;28;20574;-44
2022/06/29 10:52:46;;;;;;;10.20;5.83;;;33.90;42.20;;;;;;5033851;28;20545;-46
2022/06/29 10:55:13;;;;;;;5.87;4.60;;;34.10;40.70;;;;;;5027835;28;20563;-45
2022/06/29 10:57:42;;;;;;;6.77;4.70;;;34.30;40.80;;;;;;5036514;28;20493;-45
2022/06/29 11:00:09;;;;;;;5.43;4.93;;;34.50;39.70;;;;;;5033337;28;20949;-45
2022/06/29 11:02:38;;;;;;;5.13;4.40;;;34.70;38.70;;;;;;5045128;28;20451;-46
2022/06/29 11:05:04;;;;;;;5.20;4.80;;;34.80;38.10;;;;;;5029062;28;20929;-45
2022/06/29 11:12:58;;;;;;;5.10;3.70;;;34.80;37.80;;;;;;5029737;28;20466;-45
2022/06/29 11:15:40;;;;;;;5.60;4.30;;;34.70;37.50;;;;;;5038712;28;20447;-46
2022/06/29 11:18:12;;;;;;;4.30;3.90;;;34.80;38.10;;;;;;5028669;28;20189;-44
2022/06/29 11:20:39;;;;;;;5.83;4.60;;;35.00;38.60;;;;;;5033937;28;20474;-46
2022/06/29 11:23:12;;;;;;;4.50;4.20;;;35.20;37.80;;;;;;5028550;28;20452;-45
2022/06/29 11:25:46;;;;;;;4.27;3.97;;;35.40;37.40;;;;;;5040062;28;20487;-47
2022/06/29 11:28:13;;;;;;;5.37;4.00;;;35.30;36.80;;;;;;5037182;28;20486;-45
2022/06/29 11:30:39;;;;;;;5.50;3.77;;;35.30;37.60;;;;;;5038360;28;20436;-45
2022/06/29 11:33:12;;;;;;;4.87;4.50;;;35.30;37.30;;;;;;5032443;28;20451;-47
2022/06/29 11:35:42;;;;;;;4.60;4.20;;;35.40;37.10;;;;;;5029728;28;20446;-45
2022/06/29 11:38:08;;;;;;;4.13;3.77;;;35.40;36.90;;;;;;5022101;28;20444;-45
2022/06/29 11:40:36;;;;;;;3.77;3.47;;;35.50;36.80;;;;;;5033709;28;20447;-45
2022/06/29 11:43:07;;;;;;;3.50;3.30;;;35.60;35.80;;;;;;5035148;28;20961;-45
2022/06/29 11:45:48;;;;;;;6.40;3.53;;;35.60;35.90;;;;;;5027298;28;21127;-44
2022/06/29 11:48:19;;;;;;;4.83;4.20;;;35.10;36.00;;;;;;5021740;28;20811;-45
2022/06/29 11:50:51;;;;;;;4.07;3.77;;;35.20;36.00;;;;;;5023308;28;20488;-47
2022/06/29 11:53:39;;;;;;;4.73;3.70;;;35.30;35.90;;;;;;5029765;28;20787;-45
2022/06/29 11:56:16;;;;;;;5.73;3.70;;;35.30;36.50;;;;;;5028778;28;20443;-47
2022/06/29 11:58:50;;;;;;;4.60;4.20;;;35.20;36.50;;;;;;5032228;28;20883;-47
2022/06/29 12:01:21;;;;;;;4.10;3.80;;;35.20;36.80;;;;;;5024529;28;20491;-45
2022/06/29 12:03:55;;;;;;;4.13;3.80;;;35.20;37.10;;;;;;5017265;28;20960;-47
2022/06/29 12:06:23;;;;;;;4.53;4.10;;;35.10;37.00;;;;;;5017308;28;20526;-44
2022/06/29 12:08:49;;;;;;;5.13;3.80;;;35.10;37.60;;;;;;5032843;28;20500;-43
2022/06/29 12:11:15;;;;;;;4.20;3.80;;;35.10;37.40;;;;;;5034350;28;20443;-45
2022/06/29 12:13:42;;;;;;;4.20;3.77;;;35.10;37.00;;;;;;5024676;28;20498;-47
2022/06/29 12:16:08;;;;;;;4.13;3.90;;;35.00;37.50;;;;;;5028644;28;20189;-45
2022/06/29 12:18:34;;;;;;;4.97;4.20;;;35.00;37.80;;;;;;5030324;28;20520;-48
2022/06/29 12:21:00;;;;;;;4.87;4.23;;;34.90;37.30;;;;;;5031592;28;20444;-44
2022/06/29 12:23:25;;;;;;;4.63;3.77;;;34.80;37.50;;;;;;5025288;28;20193;-47
2022/06/29 12:25:51;;;;;;;4.50;4.10;;;34.70;38.10;;;;;;5030226;28;20712;-46
2022/06/29 12:28:17;;;;;;;4.80;4.40;;;34.70;37.50;;;;;;5031144;28;20190;-45
2022/06/29 12:30:42;;;;;;;5.63;4.63;;;34.60;38.00;;;;;;5027735;28;20271;-47
2022/06/29 12:33:09;;;;;;;5.53;4.20;;;34.40;37.90;;;;;;5030307;28;20631;-46
2022/06/29 12:35:36;;;;;;;4.77;4.33;;;34.10;38.40;;;;;;5028822;28;20657;-47
2022/06/29 12:38:02;;;;;;;6.33;4.83;;;34.00;38.70;;;;;;5029992;28;20462;-48
2022/06/29 12:40:29;;;;;;;5.17;4.43;;;33.90;39.00;;;;;;5029708;28;20814;-47
2022/06/29 12:42:55;;;;;;;5.03;4.67;;;34.00;38.90;;;;;;5029950;28;20432;-48
2022/06/29 12:45:21;;;;;;;4.77;4.37;;;34.00;39.20;;;;;;5029905;28;20498;-48
2022/06/29 12:47:47;;;;;;;4.77;4.40;;;34.20;39.30;;;;;;5029791;28;20190;-44
2022/06/29 12:50:13;;;;;;;4.60;4.20;;;34.40;39.40;;;;;;5034077;28;20443;-48
2022/06/29 12:52:42;;;;;;;5.00;4.70;;;34.40;38.60;;;;;;5028311;28;20494;-47
2022/06/29 12:55:08;;;;;;;5.17;4.33;;;34.30;39.40;;;;;;5038359;28;20324;-48
2022/06/29 12:57:34;;;;;;;4.77;4.37;;;34.40;38.20;;;;;;5036598;28;20447;-45
2022/06/29 13:00:00;;;;;;;4.80;4.40;;;34.60;38.30;;;;;;5029029;28;20950;-47
2022/06/29 13:02:26;;;;;;;4.47;4.00;;;34.70;38.00;;;;;;5030991;28;20181;-47